createdAt,value
2019-03-26T00:01:57.927Z,13.55
2019-03-26T00:04:24.016Z,13.51
2019-03-26T00:06:49.893Z,13.46
2019-03-26T00:09:15.951Z,13.49
2019-03-26T00:11:42.070Z,13.50
2019-03-26T00:14:07.924Z,13.50
2019-03-26T00:16:33.745Z,13.49
2019-03-26T00:18:59.727Z,13.53
2019-03-26T00:21:25.560Z,13.48
2019-03-26T00:23:51.813Z,13.55
2019-03-26T00:26:17.649Z,13.54
2019-03-26T00:28:43.627Z,13.38
2019-03-26T00:31:09.508Z,13.28
2019-03-26T00:33:36.811Z,13.07
2019-03-26T00:36:03.016Z,13.08
2019-03-26T00:38:28.994Z,12.85
2019-03-26T00:40:55.026Z,12.90
2019-03-26T00:43:20.961Z,12.74
2019-03-26T00:45:46.959Z,12.74
2019-03-26T00:48:12.827Z,12.65
2019-03-26T00:50:38.683Z,12.58
2019-03-26T00:53:04.715Z,12.35
2019-03-26T00:55:30.553Z,12.38
2019-03-26T00:57:56.491Z,12.25
2019-03-26T01:00:37.734Z,12.07
2019-03-26T01:03:04.061Z,11.86
2019-03-26T01:05:33.717Z,11.09
2019-03-26T01:07:59.658Z,10.88
2019-03-26T01:10:26.001Z,10.44
2019-03-26T01:12:51.854Z,10.44
2019-03-26T01:15:17.767Z,10.55
2019-03-26T01:17:43.995Z,10.14
2019-03-26T01:20:10.206Z,9.98
2019-03-26T01:22:36.071Z,9.98
2019-03-26T01:25:02.744Z,9.77
2019-03-26T01:27:28.575Z,9.58
2019-03-26T01:29:54.625Z,9.43
2019-03-26T01:32:20.487Z,9.47
2019-03-26T01:34:46.537Z,9.46
2019-03-26T01:37:12.495Z,9.36
2019-03-26T01:39:38.376Z,9.08
2019-03-26T01:42:04.342Z,9.16
2019-03-26T01:44:30.222Z,8.87
2019-03-26T01:46:56.068Z,8.82
2019-03-26T01:49:22.194Z,9.02
2019-03-26T01:51:48.090Z,8.83
2019-03-26T01:54:13.915Z,8.66
2019-03-26T01:56:39.952Z,8.68
2019-03-26T01:59:05.797Z,8.73
2019-03-26T02:01:31.720Z,8.66
2019-03-26T02:03:57.925Z,8.33
2019-03-26T02:06:23.911Z,8.45
2019-03-26T02:08:49.979Z,8.33
2019-03-26T02:11:15.901Z,8.44
2019-03-26T02:13:41.850Z,8.15
2019-03-26T02:16:07.767Z,8.14
2019-03-26T02:18:33.636Z,8.11
2019-03-26T02:20:59.719Z,8.03
2019-03-26T02:23:25.666Z,7.93
2019-03-26T02:25:51.541Z,7.86
2019-03-26T02:28:17.380Z,7.55
2019-03-26T02:30:43.506Z,7.64
2019-03-26T02:33:09.417Z,7.57
2019-03-26T02:35:35.239Z,7.74
2019-03-26T02:38:01.361Z,7.73
2019-03-26T02:40:27.233Z,7.63
2019-03-26T02:42:53.047Z,7.68
2019-03-26T02:45:19.195Z,7.64
2019-03-26T02:47:45.242Z,7.62
2019-03-26T02:50:11.571Z,7.45
2019-03-26T02:52:37.538Z,7.68
2019-03-26T02:55:04.574Z,7.55
2019-03-26T02:57:30.618Z,7.51
2019-03-26T02:59:56.573Z,7.47
2019-03-26T03:02:22.417Z,7.52
2019-03-26T03:04:48.389Z,7.57
2019-03-26T03:07:17.778Z,7.82
2019-03-26T03:09:43.716Z,7.44
2019-03-26T03:12:09.733Z,7.43
2019-03-26T03:14:35.593Z,7.49
2019-03-26T03:17:01.549Z,7.37
2019-03-26T03:19:27.446Z,7.49
2019-03-26T03:21:53.566Z,7.58
2019-03-26T03:24:19.431Z,7.54
2019-03-26T03:26:45.480Z,7.66
2019-03-26T03:29:11.344Z,7.48
2019-03-26T03:31:37.357Z,7.44
2019-03-26T03:34:03.281Z,7.16
2019-03-26T03:36:29.352Z,7.41
2019-03-26T03:38:55.251Z,7.38
2019-03-26T03:41:21.088Z,7.40
2019-03-26T03:43:46.931Z,7.26
2019-03-26T03:46:13.136Z,7.53
2019-03-26T03:48:39.319Z,7.23
2019-03-26T03:51:06.640Z,7.33
2019-03-26T03:53:32.943Z,7.37
2019-03-26T03:56:00.105Z,7.56
2019-03-26T03:58:28.114Z,7.54
2019-03-26T04:00:53.999Z,7.65
2019-03-26T04:03:20.059Z,7.21
2019-03-26T04:05:46.009Z,7.64
2019-03-26T04:08:15.296Z,7.37
2019-03-26T04:10:41.122Z,7.54
2019-03-26T04:13:07.200Z,7.34
2019-03-26T04:15:35.084Z,7.55
2019-03-26T04:18:01.300Z,7.52
2019-03-26T04:20:27.299Z,7.31
2019-03-26T04:22:53.256Z,7.44
2019-03-26T04:25:19.281Z,7.71
2019-03-26T04:27:45.344Z,7.53
2019-03-26T04:30:15.005Z,7.66
2019-03-26T04:32:40.983Z,7.79
2019-03-26T04:35:07.044Z,7.76
2019-03-26T04:37:33.105Z,7.45
2019-03-26T04:39:58.988Z,7.56
2019-03-26T04:42:24.942Z,7.49
2019-03-26T04:44:50.905Z,7.50
2019-03-26T04:47:17.079Z,7.49
2019-03-26T04:49:42.940Z,7.36
2019-03-26T04:52:08.892Z,7.56
2019-03-26T04:54:34.774Z,7.47
2019-03-26T04:57:00.608Z,7.62
2019-03-26T04:59:26.502Z,7.38
2019-03-26T05:01:52.350Z,7.13
2019-03-26T05:04:18.207Z,7.28
2019-03-26T05:06:44.081Z,7.51
2019-03-26T05:09:10.097Z,7.52
2019-03-26T05:11:35.947Z,6.90
2019-03-26T05:14:01.831Z,6.85
2019-03-26T05:16:27.675Z,7.07
2019-03-26T05:18:53.518Z,7.00
2019-03-26T05:21:19.361Z,7.10
2019-03-26T05:23:45.299Z,7.12
2019-03-26T05:26:11.177Z,7.12
2019-03-26T05:28:37.019Z,7.13
2019-03-26T05:31:03.070Z,7.29
2019-03-26T05:33:28.972Z,7.39
2019-03-26T05:35:54.830Z,7.56
2019-03-26T05:38:20.762Z,7.76
2019-03-26T05:40:46.707Z,7.53
2019-03-26T05:43:12.661Z,7.62
2019-03-26T05:45:38.650Z,7.54
2019-03-26T05:48:04.496Z,7.96
2019-03-26T05:50:30.383Z,7.97
2019-03-26T05:52:56.288Z,7.88
2019-03-26T05:55:22.319Z,8.04
2019-03-26T05:57:48.256Z,7.80
2019-03-26T06:00:17.937Z,7.53
2019-03-26T06:02:43.981Z,7.58
2019-03-26T06:05:10.130Z,8.00
2019-03-26T06:07:36.081Z,8.93
2019-03-26T06:10:07.335Z,9.28
2019-03-26T06:12:33.201Z,8.79
2019-03-26T06:14:59.043Z,9.23
2019-03-26T06:17:25.132Z,8.26
2019-03-26T06:19:51.060Z,7.90
2019-03-26T06:22:16.980Z,7.87
2019-03-26T06:24:42.873Z,8.05
2019-03-26T06:27:08.821Z,8.14
2019-03-26T06:29:34.670Z,8.56
2019-03-26T06:32:01.113Z,8.53
2019-03-26T06:34:27.011Z,8.38
2019-03-26T06:36:52.949Z,8.15
2019-03-26T06:39:18.955Z,8.29
2019-03-26T06:41:44.788Z,8.90
2019-03-26T06:44:10.751Z,8.66
2019-03-26T06:46:36.615Z,8.55
2019-03-26T06:49:02.667Z,8.47
2019-03-26T06:51:28.676Z,7.87
2019-03-26T06:53:54.507Z,7.40
2019-03-26T06:56:20.351Z,7.43
2019-03-26T06:58:46.451Z,7.35
2019-03-26T07:01:15.175Z,7.47
2019-03-26T07:03:41.137Z,7.83
2019-03-26T07:06:07.113Z,8.05
2019-03-26T07:08:32.953Z,8.33
2019-03-26T07:10:59.030Z,8.16
2019-03-26T07:13:24.995Z,7.55
2019-03-26T07:15:50.849Z,7.70
2019-03-26T07:18:16.760Z,7.44
2019-03-26T07:20:43.009Z,7.46
2019-03-26T07:23:08.839Z,7.47
2019-03-26T07:25:34.939Z,7.64
2019-03-26T07:28:01.051Z,7.63
2019-03-26T07:30:35.139Z,7.83
2019-03-26T07:33:01.054Z,7.95
2019-03-26T07:35:27.094Z,8.24
2019-03-26T07:37:52.961Z,7.72
2019-03-26T07:40:18.994Z,7.98
2019-03-26T07:42:44.850Z,8.17
2019-03-26T07:45:10.968Z,8.14
2019-03-26T07:47:36.937Z,8.33
2019-03-26T07:50:04.901Z,8.00
2019-03-26T07:52:33.544Z,8.11
2019-03-26T07:54:59.579Z,8.40
2019-03-26T07:57:25.616Z,8.54
2019-03-26T07:59:51.602Z,8.20
2019-03-26T08:02:17.435Z,8.06
2019-03-26T08:04:43.273Z,7.91
2019-03-26T08:07:09.275Z,8.43
2019-03-26T08:09:35.329Z,8.75
2019-03-26T08:12:01.369Z,8.48
2019-03-26T08:14:27.341Z,8.48
2019-03-26T08:16:53.182Z,8.40
2019-03-26T08:19:19.322Z,8.83
2019-03-26T08:21:45.292Z,9.02
2019-03-26T08:24:11.247Z,9.00
2019-03-26T08:26:37.129Z,9.17
2019-03-26T08:29:03.187Z,8.88
2019-03-26T08:31:29.288Z,8.72
2019-03-26T08:33:55.137Z,8.98
2019-03-26T08:36:20.997Z,9.41
2019-03-26T08:38:46.879Z,8.87
2019-03-26T08:41:12.732Z,9.10
2019-03-26T08:43:40.931Z,9.36
2019-03-26T08:46:06.438Z,9.59
2019-03-26T08:48:32.494Z,9.80
2019-03-26T08:50:58.418Z,9.88
2019-03-26T08:53:24.419Z,9.67
2019-03-26T08:55:50.389Z,10.03
2019-03-26T08:58:16.227Z,9.89
2019-03-26T09:00:42.080Z,9.82
2019-03-26T09:03:08.028Z,9.98
2019-03-26T09:05:34.148Z,10.10
2019-03-26T09:08:00.568Z,10.28
2019-03-26T09:10:28.495Z,10.18
2019-03-26T09:12:54.425Z,10.20
2019-03-26T09:15:20.495Z,10.02
2019-03-26T09:17:46.344Z,10.10
2019-03-26T09:20:13.171Z,10.10
2019-03-26T09:22:39.106Z,10.62
2019-03-26T09:25:05.768Z,10.14
2019-03-26T09:27:31.886Z,10.81
2019-03-26T09:29:57.751Z,10.93
2019-03-26T09:32:23.589Z,11.23
2019-03-26T09:34:49.574Z,11.18
2019-03-26T09:37:15.518Z,10.94
2019-03-26T09:39:41.363Z,10.85
2019-03-26T09:42:07.215Z,11.20
2019-03-26T09:44:33.074Z,11.37
2019-03-26T09:46:59.069Z,10.96
2019-03-26T09:49:24.988Z,11.45
2019-03-26T09:51:50.936Z,11.35
2019-03-26T09:54:16.830Z,11.47
2019-03-26T09:56:42.737Z,11.85
2019-03-26T09:59:08.615Z,11.71
2019-03-26T10:01:34.503Z,12.22
2019-03-26T10:04:00.364Z,12.09
2019-03-26T10:06:26.357Z,11.87
2019-03-26T10:08:53.038Z,11.94
2019-03-26T10:11:19.023Z,11.52
2019-03-26T10:13:44.935Z,11.41
2019-03-26T10:16:10.795Z,11.56
2019-03-26T10:18:36.705Z,11.65
2019-03-26T10:21:02.784Z,12.16
2019-03-26T10:23:28.629Z,12.13
2019-03-26T10:25:54.474Z,11.94
2019-03-26T10:28:20.458Z,11.85
2019-03-26T10:30:46.420Z,12.18
2019-03-26T10:33:12.616Z,12.24
2019-03-26T10:35:38.715Z,12.01
2019-03-26T10:38:04.939Z,12.22
2019-03-26T10:40:32.704Z,12.50
2019-03-26T10:42:59.459Z,12.75
2019-03-26T10:45:25.449Z,12.41
2019-03-26T10:47:51.331Z,12.72
2019-03-26T10:50:17.263Z,12.67
2019-03-26T10:52:43.234Z,12.85
2019-03-26T10:55:09.328Z,12.80
2019-03-26T10:57:35.181Z,12.71
2019-03-26T11:00:01.619Z,12.96
2019-03-26T11:02:27.844Z,12.83
2019-03-26T11:04:53.899Z,12.47
2019-03-26T11:07:19.955Z,12.73
2019-03-26T11:09:45.908Z,12.82
2019-03-26T11:14:37.782Z,13.07
2019-03-26T11:17:03.863Z,12.96
2019-03-26T11:19:29.893Z,13.03
2019-03-26T11:21:55.855Z,13.33
2019-03-26T11:24:21.672Z,13.38
2019-03-26T11:26:47.702Z,13.19
2019-03-26T11:29:13.765Z,13.44
2019-03-26T11:31:39.614Z,13.07
2019-03-26T11:34:05.456Z,13.09
2019-03-26T11:36:31.400Z,13.14
2019-03-26T11:38:57.329Z,13.38
2019-03-26T11:41:23.372Z,13.80
2019-03-26T11:43:49.264Z,14.05
2019-03-26T11:46:15.188Z,13.88
2019-03-26T11:48:41.377Z,13.41
2019-03-26T11:51:07.432Z,13.71
2019-03-26T11:53:33.392Z,12.82
2019-03-26T11:55:59.274Z,13.54
2019-03-26T11:58:30.678Z,13.59
2019-03-26T12:00:53.426Z,13.48
2019-03-26T12:03:19.423Z,13.51
2019-03-26T12:05:45.687Z,13.52
2019-03-26T12:08:11.861Z,13.12
2019-03-26T12:10:37.774Z,13.42
2019-03-26T12:13:03.874Z,13.97
2019-03-26T12:15:29.858Z,13.33
2019-03-26T12:17:55.812Z,14.05
2019-03-26T12:20:21.832Z,13.88
2019-03-26T12:22:47.825Z,14.12
2019-03-26T12:25:13.961Z,13.89
2019-03-26T12:27:39.871Z,14.51
2019-03-26T12:30:08.063Z,14.98
2019-03-26T12:32:34.104Z,15.58
2019-03-26T12:35:00.406Z,15.32
2019-03-26T12:37:26.343Z,14.51
2019-03-26T12:39:59.381Z,14.58
2019-03-26T12:42:20.307Z,14.02
2019-03-26T12:44:46.218Z,15.11
2019-03-26T12:47:12.065Z,16.25
2019-03-26T12:49:38.020Z,16.05
2019-03-26T12:52:03.953Z,15.94
2019-03-26T12:54:29.870Z,17.85
2019-03-26T12:56:55.818Z,16.95
2019-03-26T12:59:21.645Z,17.71
2019-03-26T13:01:47.651Z,16.71
2019-03-26T13:04:16.784Z,17.99
2019-03-26T13:06:41.514Z,16.58
2019-03-26T13:09:08.105Z,24.38
2019-03-26T13:11:33.939Z,25.03
2019-03-26T13:14:18.628Z,25.16
2019-03-26T13:16:44.595Z,26.68
2019-03-26T13:19:10.533Z,23.82
2019-03-26T13:21:37.661Z,22.95
2019-03-26T13:24:03.851Z,22.10
2019-03-26T13:26:29.796Z,24.66
2019-03-26T13:28:55.673Z,25.16
2019-03-26T13:31:21.501Z,25.94
2019-03-26T13:33:47.501Z,23.20
2019-03-26T13:36:13.435Z,22.97
2019-03-26T13:38:39.377Z,23.06
2019-03-26T13:41:05.369Z,26.61
2019-03-26T13:43:31.318Z,24.22
2019-03-26T13:45:57.150Z,24.41
2019-03-26T13:48:23.106Z,25.93
2019-03-26T13:50:49.033Z,22.78
2019-03-26T13:53:14.928Z,24.56
2019-03-26T13:55:40.958Z,23.94
2019-03-26T13:58:06.915Z,26.64
2019-03-26T14:00:34.687Z,25.41
2019-03-26T14:03:00.757Z,21.43
2019-03-26T14:05:26.794Z,22.84
2019-03-26T14:07:52.788Z,21.51
2019-03-26T14:10:19.034Z,22.60
2019-03-26T14:12:44.994Z,22.46
2019-03-26T14:15:11.222Z,22.59
2019-03-26T14:17:37.237Z,21.61
2019-03-26T14:20:04.465Z,22.72
2019-03-26T14:22:30.345Z,22.92
2019-03-26T14:24:56.161Z,23.03
2019-03-26T14:27:22.052Z,20.26
2019-03-26T14:29:48.009Z,22.88
2019-03-26T14:32:14.085Z,27.73
2019-03-26T14:34:40.033Z,24.83
2019-03-26T14:37:05.963Z,25.41
2019-03-26T14:39:31.816Z,21.78
2019-03-26T14:41:57.931Z,25.85
2019-03-26T14:44:23.776Z,28.92
2019-03-26T14:46:49.727Z,29.15
2019-03-26T14:49:15.669Z,26.50
2019-03-26T14:51:41.530Z,26.23
2019-03-26T14:54:07.517Z,24.02
2019-03-26T14:56:33.453Z,24.14
2019-03-26T14:58:59.450Z,23.87
2019-03-26T15:01:25.273Z,24.39
2019-03-26T15:03:51.122Z,22.05
2019-03-26T15:06:17.182Z,25.97
2019-03-26T15:08:43.253Z,22.23
2019-03-26T15:11:09.204Z,21.39
2019-03-26T15:13:35.303Z,24.65
2019-03-26T15:16:01.282Z,22.73
2019-03-26T15:18:27.168Z,22.72
2019-03-26T15:20:53.205Z,22.99
2019-03-26T15:23:19.195Z,21.14
2019-03-26T15:25:45.216Z,26.62
2019-03-26T15:28:11.903Z,22.63
2019-03-26T15:30:38.203Z,22.91
2019-03-26T15:33:04.365Z,22.81
2019-03-26T15:35:30.318Z,21.01
2019-03-26T15:37:56.197Z,20.96
2019-03-26T15:40:22.086Z,24.26
2019-03-26T15:42:47.904Z,27.00
2019-03-26T15:45:13.987Z,24.56
2019-03-26T15:47:39.939Z,21.51
2019-03-26T15:50:06.310Z,22.29
2019-03-26T15:52:32.278Z,22.02
2019-03-26T15:54:58.294Z,23.02
2019-03-26T15:57:24.178Z,21.55
2019-03-26T15:59:50.168Z,21.89
2019-03-26T16:02:16.006Z,21.62
2019-03-26T16:04:41.840Z,21.04
2019-03-26T16:07:07.680Z,20.03
2019-03-26T16:09:33.640Z,20.29
2019-03-26T16:11:59.737Z,19.76
2019-03-26T16:14:28.049Z,19.89
2019-03-26T16:16:53.571Z,20.26
2019-03-26T16:19:31.893Z,19.05
2019-03-26T16:21:47.313Z,19.49
2019-03-26T16:24:13.227Z,20.68
2019-03-26T16:26:39.081Z,20.88
2019-03-26T16:29:05.057Z,21.54
2019-03-26T16:31:31.223Z,20.80
2019-03-26T16:33:57.108Z,21.13
2019-03-26T16:36:23.039Z,22.16
2019-03-26T16:38:49.282Z,21.55
2019-03-26T16:41:15.197Z,23.11
2019-03-26T16:43:41.175Z,21.01
2019-03-26T16:46:07.260Z,20.11
2019-03-26T16:48:33.077Z,19.87
2019-03-26T16:50:59.023Z,21.55
2019-03-26T16:53:24.883Z,19.60
2019-03-26T16:55:50.730Z,17.65
2019-03-26T16:58:16.583Z,17.66
2019-03-26T17:00:42.562Z,17.38
2019-03-26T17:03:08.425Z,16.45
2019-03-26T17:05:34.387Z,16.42
2019-03-26T17:08:00.342Z,17.29
2019-03-26T17:10:26.282Z,18.07
2019-03-26T17:12:52.142Z,16.78
2019-03-26T17:15:18.074Z,16.11
2019-03-26T17:17:43.921Z,15.61
2019-03-26T17:20:09.906Z,15.31
2019-03-26T17:22:35.761Z,15.27
2019-03-26T17:25:03.918Z,14.99
2019-03-26T17:27:29.754Z,14.70
2019-03-26T17:29:55.779Z,14.58
2019-03-26T17:32:21.771Z,14.52
2019-03-26T17:34:47.656Z,14.56
2019-03-26T17:37:13.513Z,14.55
2019-03-26T17:39:39.336Z,14.19
2019-03-26T17:42:16.656Z,14.22
2019-03-26T17:44:33.039Z,14.08
2019-03-26T17:46:59.089Z,14.06
2019-03-26T17:49:25.167Z,14.04
2019-03-26T17:51:51.196Z,14.00
2019-03-26T17:54:17.032Z,13.73
2019-03-26T17:56:42.983Z,13.87
2019-03-26T17:59:08.962Z,13.65
2019-03-26T18:01:35.001Z,13.60
2019-03-26T18:04:01.067Z,13.64
2019-03-26T18:06:26.943Z,13.65
2019-03-26T18:08:52.861Z,13.29
2019-03-26T18:11:18.969Z,13.19
2019-03-26T18:13:44.815Z,13.05
2019-03-26T18:16:10.678Z,12.81
2019-03-26T18:18:36.600Z,12.86
2019-03-26T18:21:02.644Z,12.81
2019-03-26T18:23:28.510Z,12.75
2019-03-26T18:25:54.552Z,12.67
2019-03-26T18:28:20.589Z,12.52
2019-03-26T18:30:46.424Z,12.50
2019-03-26T18:33:12.270Z,12.41
2019-03-26T18:35:38.156Z,12.22
2019-03-26T18:38:04.484Z,12.68
2019-03-26T18:40:30.441Z,12.77
2019-03-26T18:42:56.460Z,12.71
2019-03-26T18:45:22.579Z,12.78
2019-03-26T18:47:48.557Z,12.76
2019-03-26T18:50:14.821Z,12.64
2019-03-26T18:52:40.800Z,12.55
2019-03-26T18:55:06.939Z,12.47
2019-03-26T18:57:32.964Z,12.51
2019-03-26T18:59:58.820Z,12.52
2019-03-26T19:02:24.842Z,12.43
2019-03-26T19:04:50.841Z,12.51
2019-03-26T19:07:17.778Z,12.41
2019-03-26T19:09:43.929Z,12.42
2019-03-26T19:12:09.820Z,12.42
2019-03-26T19:14:35.663Z,12.23
2019-03-26T19:17:01.629Z,12.16
2019-03-26T19:19:27.784Z,12.31
2019-03-26T19:21:53.678Z,12.23
2019-03-26T19:24:19.532Z,12.22
2019-03-26T19:26:45.428Z,12.10
2019-03-26T19:29:11.257Z,12.14
2019-03-26T19:31:37.346Z,11.97
2019-03-26T19:34:03.214Z,11.99
2019-03-26T19:36:29.243Z,11.86
2019-03-26T19:38:55.121Z,11.91
2019-03-26T19:41:21.052Z,11.91
2019-03-26T19:43:46.918Z,11.78
2019-03-26T19:46:12.783Z,11.72
2019-03-26T19:48:38.623Z,11.71
2019-03-26T19:51:04.522Z,11.72
2019-03-26T19:53:30.382Z,11.59
2019-03-26T19:55:56.226Z,11.75
2019-03-26T19:58:22.101Z,11.73
2019-03-26T20:00:48.104Z,11.57
2019-03-26T20:03:14.010Z,11.57
2019-03-26T20:05:39.864Z,11.55
2019-03-26T20:08:06.705Z,11.51
2019-03-26T20:10:32.720Z,11.56
2019-03-26T20:12:58.536Z,11.45
2019-03-26T20:15:24.590Z,11.55
2019-03-26T20:17:50.466Z,11.46
2019-03-26T20:20:17.369Z,11.34
2019-03-26T20:22:43.292Z,11.39
2019-03-26T20:25:09.679Z,11.19
2019-03-26T20:27:35.592Z,10.91
2019-03-26T20:30:02.294Z,10.92
2019-03-26T20:32:28.245Z,10.87
2019-03-26T20:34:54.300Z,10.67
2019-03-26T20:37:20.215Z,10.48
2019-03-26T20:39:46.252Z,10.55
2019-03-26T20:42:12.256Z,10.54
2019-03-26T20:44:38.145Z,8.77
2019-03-26T20:47:04.066Z,10.55
2019-03-26T20:49:29.919Z,10.52
2019-03-26T20:51:56.031Z,10.68
2019-03-26T20:54:21.963Z,10.52
2019-03-26T20:56:48.114Z,10.45
2019-03-26T20:59:14.292Z,10.51
2019-03-26T21:01:40.133Z,10.38
2019-03-26T21:04:06.173Z,10.34
2019-03-26T21:06:32.062Z,10.28
2019-03-26T21:08:57.907Z,10.28
2019-03-26T21:11:23.888Z,10.46
2019-03-26T21:13:50.840Z,10.29
2019-03-26T21:16:17.107Z,10.18
2019-03-26T21:18:42.931Z,10.00
2019-03-26T21:21:08.811Z,9.81
2019-03-26T21:23:34.654Z,9.84
2019-03-26T21:26:00.807Z,9.80
2019-03-26T21:28:26.643Z,9.86
2019-03-26T21:30:52.465Z,9.59
2019-03-26T21:33:18.337Z,9.52
2019-03-26T21:35:44.277Z,9.43
2019-03-26T21:38:10.129Z,9.47
2019-03-26T21:40:36.458Z,9.34
2019-03-26T21:43:02.439Z,9.30
2019-03-26T21:45:33.155Z,9.22
2019-03-26T21:47:59.100Z,9.15
2019-03-26T21:50:25.107Z,9.10
2019-03-26T21:52:51.101Z,9.07
2019-03-26T21:55:16.982Z,9.03
2019-03-26T21:57:42.845Z,8.87
2019-03-26T22:00:09.615Z,9.01
2019-03-26T22:02:35.426Z,8.94
2019-03-26T22:05:02.058Z,8.89
2019-03-26T22:07:28.009Z,8.92
2019-03-26T22:09:53.862Z,8.86
2019-03-26T22:12:22.888Z,8.77
2019-03-26T22:14:48.823Z,8.74
2019-03-26T22:17:14.769Z,8.94
2019-03-26T22:19:40.666Z,8.70
2019-03-26T22:22:06.492Z,8.73
2019-03-26T22:24:32.353Z,8.80
2019-03-26T22:26:58.325Z,8.77
2019-03-26T22:29:24.152Z,8.77
2019-03-26T22:31:49.999Z,8.66
2019-03-26T22:34:15.898Z,8.58
2019-03-26T22:36:41.828Z,8.55
2019-03-26T22:39:07.682Z,8.51
2019-03-26T22:41:33.544Z,8.55
2019-03-26T22:43:59.471Z,8.68
2019-03-26T22:46:25.323Z,8.60
2019-03-26T22:48:51.424Z,8.56
2019-03-26T22:51:17.251Z,8.52
2019-03-26T22:53:43.077Z,8.38
2019-03-26T22:56:09.000Z,8.38
2019-03-26T22:58:34.816Z,8.55
2019-03-26T23:01:00.960Z,8.41
2019-03-26T23:03:26.883Z,8.46
2019-03-26T23:05:52.717Z,8.44
2019-03-26T23:08:18.529Z,8.29
2019-03-26T23:10:44.496Z,8.31
2019-03-26T23:13:10.551Z,8.13
2019-03-26T23:15:36.380Z,8.17
2019-03-26T23:18:02.473Z,8.27
2019-03-26T23:20:28.358Z,8.23
2019-03-26T23:22:54.241Z,8.23
2019-03-26T23:25:20.203Z,8.14
2019-03-26T23:27:46.590Z,8.12
2019-03-26T23:30:13.233Z,8.23
2019-03-26T23:32:39.189Z,7.96
2019-03-26T23:35:05.214Z,8.01
2019-03-26T23:37:31.053Z,8.04
2019-03-26T23:39:56.947Z,8.21
2019-03-26T23:42:22.764Z,8.10
2019-03-26T23:44:58.383Z,7.81
2019-03-26T23:47:16.442Z,7.78
2019-03-26T23:49:42.269Z,7.95
2019-03-26T23:52:08.377Z,7.85
2019-03-26T23:54:34.197Z,7.69
2019-03-26T23:57:00.045Z,7.71
2019-03-26T23:59:25.936Z,7.75
